createdAt,value
2018-04-13T00:00:11.663Z,20.25
2018-04-13T00:01:11.444Z,20.25
2018-04-13T00:02:11.514Z,20.25
2018-04-13T00:03:11.420Z,20.25
2018-04-13T00:04:11.463Z,20.25
2018-04-13T00:05:11.537Z,20.25
2018-04-13T00:06:11.649Z,20.25
2018-04-13T00:07:11.500Z,20.25
2018-04-13T00:08:11.469Z,20.25
2018-04-13T00:09:11.502Z,20.25
2018-04-13T00:10:11.488Z,20.25
2018-04-13T00:11:11.519Z,20.25
2018-04-13T00:12:11.422Z,20.25
2018-04-13T00:13:11.559Z,20.25
2018-04-13T00:14:11.515Z,20.25
2018-04-13T00:15:11.583Z,20.25
2018-04-13T00:16:11.593Z,20.25
2018-04-13T00:17:11.405Z,20.25
2018-04-13T00:18:11.364Z,20.25
2018-04-13T00:19:11.527Z,20.25
2018-04-13T00:20:11.466Z,20.25
2018-04-13T00:21:11.336Z,20.25
2018-04-13T00:22:11.554Z,20.25
2018-04-13T00:23:11.690Z,20.25
2018-04-13T00:24:11.360Z,20.25
2018-04-13T00:25:11.565Z,20.25
2018-04-13T00:26:11.572Z,20.25
2018-04-13T00:27:11.448Z,20.25
2018-04-13T00:28:11.613Z,20.25
2018-04-13T00:29:13.523Z,20.25
2018-04-13T00:30:11.578Z,20.25
2018-04-13T00:31:11.410Z,20.25
2018-04-13T00:32:11.553Z,20.25
2018-04-13T00:33:11.306Z,20.25
2018-04-13T00:34:11.558Z,20.25
2018-04-13T00:35:11.659Z,20.25
2018-04-13T00:36:11.525Z,20.25
2018-04-13T00:37:11.576Z,20.25
2018-04-13T00:38:11.590Z,20.25
2018-04-13T00:39:11.359Z,20.25
2018-04-13T00:40:11.239Z,20.25
2018-04-13T00:41:11.486Z,20.25
2018-04-13T00:42:11.294Z,20.25
2018-04-13T00:43:11.315Z,20.25
2018-04-13T00:44:11.673Z,20.25
2018-04-13T00:45:11.547Z,20.25
2018-04-13T00:46:11.419Z,20.25
2018-04-13T00:47:11.427Z,20.25
2018-04-13T00:48:11.502Z,20.25
2018-04-13T00:49:11.419Z,20.25
2018-04-13T00:50:11.453Z,20.25
2018-04-13T00:51:11.545Z,20.25
2018-04-13T00:52:11.470Z,20.25
2018-04-13T00:53:11.557Z,20.25
2018-04-13T00:54:11.416Z,20.25
2018-04-13T00:55:11.488Z,20.25
2018-04-13T00:56:11.515Z,20.25
2018-04-13T00:57:11.341Z,20.25
2018-04-13T00:58:11.568Z,20.25
2018-04-13T00:59:11.547Z,20.25
2018-04-13T01:00:13.524Z,20.25
2018-04-13T01:01:11.428Z,20.25
2018-04-13T01:02:11.493Z,20.25
2018-04-13T01:03:11.385Z,20.25
2018-04-13T01:04:11.467Z,20.25
2018-04-13T01:05:11.489Z,20.25
2018-04-13T01:06:11.543Z,20.25
2018-04-13T01:07:11.419Z,20
2018-04-13T01:08:11.395Z,20.25
2018-04-13T01:09:11.526Z,20.25
2018-04-13T01:10:11.501Z,20.25
2018-04-13T01:11:11.520Z,20.25
2018-04-13T01:12:11.332Z,20.25
2018-04-13T01:13:11.383Z,20
2018-04-13T01:14:11.440Z,20.25
2018-04-13T01:15:11.421Z,20.25
2018-04-13T01:16:11.430Z,20
2018-04-13T01:17:11.315Z,20.25
2018-04-13T01:18:11.338Z,20.25
2018-04-13T01:19:11.433Z,20
2018-04-13T01:20:11.462Z,20.25
2018-04-13T01:21:11.538Z,20.25
2018-04-13T01:22:11.462Z,20
2018-04-13T01:23:11.415Z,20.25
2018-04-13T01:24:11.507Z,20.25
2018-04-13T01:25:11.524Z,20
2018-04-13T01:26:11.531Z,20.25
2018-04-13T01:27:11.593Z,20.25
2018-04-13T01:28:11.388Z,20
2018-04-13T01:29:11.412Z,20.25
2018-04-13T01:30:11.441Z,20.25
2018-04-13T01:31:11.478Z,20
2018-04-13T01:32:11.438Z,20.25
2018-04-13T01:33:11.557Z,20.25
2018-04-13T01:34:11.372Z,20
2018-04-13T01:35:11.576Z,20.25
2018-04-13T01:36:11.389Z,20.25
2018-04-13T01:37:11.527Z,20
2018-04-13T01:38:11.539Z,20.25
2018-04-13T01:39:11.354Z,20.25
2018-04-13T01:40:11.554Z,20
2018-04-13T01:41:11.390Z,20.25
2018-04-13T01:42:11.297Z,20.25
2018-04-13T01:43:11.552Z,20
2018-04-13T01:44:11.415Z,20.25
2018-04-13T01:45:11.479Z,20.25
2018-04-13T01:46:11.525Z,20
2018-04-13T01:47:11.444Z,20.25
2018-04-13T01:48:11.506Z,20.25
2018-04-13T01:49:11.420Z,20
2018-04-13T01:50:11.451Z,20.25
2018-04-13T01:51:11.506Z,20.25
2018-04-13T01:52:11.593Z,20
2018-04-13T01:53:11.498Z,20.25
2018-04-13T01:54:11.435Z,20.25
2018-04-13T01:55:11.528Z,20
2018-04-13T01:56:11.386Z,20.25
2018-04-13T01:57:11.399Z,20.25
2018-04-13T01:58:11.384Z,20
2018-04-13T01:59:11.467Z,20.25
2018-04-13T02:00:11.611Z,20.25
2018-04-13T02:01:11.345Z,20
2018-04-13T02:02:11.339Z,20.25
2018-04-13T02:03:11.516Z,20.25
2018-04-13T02:04:11.559Z,20
2018-04-13T02:05:11.562Z,20
2018-04-13T02:06:11.505Z,20.25
2018-04-13T02:07:11.317Z,20
2018-04-13T02:08:11.333Z,20
2018-04-13T02:09:11.360Z,20.25
2018-04-13T02:10:11.460Z,20
2018-04-13T02:11:11.438Z,20.25
2018-04-13T02:12:11.464Z,20.25
2018-04-13T02:13:11.560Z,20
2018-04-13T02:14:11.456Z,20
2018-04-13T02:15:11.537Z,20.25
2018-04-13T02:16:11.491Z,20
2018-04-13T02:17:11.442Z,20
2018-04-13T02:18:11.382Z,20.25
2018-04-13T02:19:11.365Z,20
2018-04-13T02:20:11.507Z,20
2018-04-13T02:21:11.391Z,20.25
2018-04-13T02:22:11.344Z,20
2018-04-13T02:23:11.463Z,20
2018-04-13T02:24:11.291Z,20.25
2018-04-13T02:25:11.439Z,20
2018-04-13T02:26:11.422Z,20
2018-04-13T02:27:11.530Z,20.25
2018-04-13T02:28:11.338Z,20
2018-04-13T02:29:11.452Z,20
2018-04-13T02:30:11.304Z,20.25
2018-04-13T02:31:11.428Z,20
2018-04-13T02:32:11.338Z,20
2018-04-13T02:33:11.606Z,20.25
2018-04-13T02:34:11.292Z,20
2018-04-13T02:35:11.436Z,20
2018-04-13T02:36:11.483Z,20
2018-04-13T02:37:11.404Z,20
2018-04-13T02:38:11.632Z,20
2018-04-13T02:39:11.431Z,20
2018-04-13T02:40:11.450Z,20
2018-04-13T02:41:11.372Z,20
2018-04-13T02:42:11.452Z,20
2018-04-13T02:43:11.457Z,20
2018-04-13T02:44:11.447Z,20
2018-04-13T02:45:11.524Z,20
2018-04-13T02:46:11.473Z,20
2018-04-13T02:47:11.270Z,20
2018-04-13T02:48:11.473Z,20
2018-04-13T02:49:11.458Z,20
2018-04-13T02:50:11.403Z,20
2018-04-13T02:51:11.459Z,20.25
2018-04-13T02:52:11.309Z,20
2018-04-13T02:53:11.537Z,20
2018-04-13T02:54:11.372Z,20
2018-04-13T02:55:11.533Z,20
2018-04-13T02:56:11.448Z,20
2018-04-13T02:57:11.503Z,20
2018-04-13T02:58:11.376Z,20
2018-04-13T02:59:11.507Z,20
2018-04-13T03:00:11.283Z,20
2018-04-13T03:01:11.528Z,20
2018-04-13T03:02:11.548Z,20
2018-04-13T03:03:11.308Z,20
2018-04-13T03:04:11.535Z,20
2018-04-13T03:05:11.364Z,20
2018-04-13T03:06:11.332Z,20
2018-04-13T03:07:11.539Z,20
2018-04-13T03:08:11.340Z,20
2018-04-13T03:09:11.598Z,20
2018-04-13T03:10:11.441Z,20
2018-04-13T03:11:11.533Z,20
2018-04-13T03:12:11.528Z,20
2018-04-13T03:13:11.495Z,20
2018-04-13T03:14:11.394Z,20
2018-04-13T03:15:11.544Z,20
2018-04-13T03:16:11.392Z,20
2018-04-13T03:17:11.424Z,20
2018-04-13T03:18:11.417Z,20
2018-04-13T03:19:11.531Z,20
2018-04-13T03:20:11.365Z,20
2018-04-13T03:21:11.359Z,20
2018-04-13T03:22:11.528Z,20
2018-04-13T03:23:11.512Z,20
2018-04-13T03:24:11.346Z,20
2018-04-13T03:25:11.459Z,20
2018-04-13T03:26:11.435Z,20
2018-04-13T03:27:11.350Z,20
2018-04-13T03:28:11.494Z,20
2018-04-13T03:29:11.511Z,20
2018-04-13T03:30:11.370Z,20
2018-04-13T03:31:11.265Z,20
2018-04-13T03:32:11.493Z,20
2018-04-13T03:33:11.546Z,20
2018-04-13T03:34:11.323Z,20
2018-04-13T03:35:11.414Z,20
2018-04-13T03:36:11.433Z,20
2018-04-13T03:37:11.423Z,20
2018-04-13T03:38:11.551Z,20
2018-04-13T03:39:11.496Z,20
2018-04-13T03:40:11.361Z,20
2018-04-13T03:41:11.519Z,20
2018-04-13T03:42:11.320Z,20
2018-04-13T03:43:11.479Z,20
2018-04-13T03:44:11.488Z,20
2018-04-13T03:45:11.348Z,20
2018-04-13T03:46:11.534Z,20
2018-04-13T03:47:11.753Z,20
2018-04-13T03:48:11.243Z,20
2018-04-13T03:49:11.415Z,20
2018-04-13T03:50:11.348Z,20
2018-04-13T03:51:11.418Z,20
2018-04-13T03:52:11.498Z,20
2018-04-13T03:53:11.503Z,20
2018-04-13T03:54:11.389Z,20
2018-04-13T03:55:11.602Z,20
2018-04-13T03:56:11.378Z,20
2018-04-13T03:57:11.489Z,20
2018-04-13T03:58:11.360Z,20
2018-04-13T03:59:11.431Z,20
2018-04-13T04:00:11.427Z,20
2018-04-13T04:01:11.316Z,20
2018-04-13T04:02:13.689Z,20
2018-04-13T04:03:11.488Z,20
2018-04-13T04:04:11.469Z,20
2018-04-13T04:05:11.388Z,20
2018-04-13T04:06:11.351Z,20
2018-04-13T04:07:11.369Z,20
2018-04-13T04:08:11.536Z,20
2018-04-13T04:09:11.270Z,20
2018-04-13T04:10:11.229Z,20
2018-04-13T04:11:11.374Z,20
2018-04-13T04:12:11.464Z,20
2018-04-13T04:13:11.239Z,20
2018-04-13T04:14:11.487Z,20
2018-04-13T04:15:11.306Z,20
2018-04-13T04:16:11.295Z,20
2018-04-13T04:17:11.480Z,20
2018-04-13T04:18:11.274Z,20
2018-04-13T04:19:11.432Z,20
2018-04-13T04:20:11.384Z,20
2018-04-13T04:21:11.523Z,20.25
2018-04-13T04:22:11.447Z,20
2018-04-13T04:23:11.358Z,20
2018-04-13T04:24:11.707Z,20.25
2018-04-13T04:25:11.344Z,20
2018-04-13T04:26:11.394Z,20.25
2018-04-13T04:27:11.391Z,20.25
2018-04-13T04:28:11.544Z,20
2018-04-13T04:29:11.476Z,20.25
2018-04-13T04:30:11.239Z,20.25
2018-04-13T04:31:11.490Z,20.25
2018-04-13T04:32:11.292Z,20.25
2018-04-13T04:33:11.283Z,20.25
2018-04-13T04:34:11.382Z,20.25
2018-04-13T04:35:11.402Z,20.25
2018-04-13T04:36:11.302Z,20.25
2018-04-13T04:37:11.594Z,20.25
2018-04-13T04:38:11.630Z,20.25
2018-04-13T04:39:11.301Z,20.25
2018-04-13T04:40:11.418Z,20.25
2018-04-13T04:41:11.408Z,20.25
2018-04-13T04:42:11.296Z,20.5
2018-04-13T04:43:11.438Z,20.25
2018-04-13T04:44:11.255Z,20.25
2018-04-13T04:45:11.337Z,20.5
2018-04-13T04:46:11.316Z,20.25
2018-04-13T04:47:11.417Z,20.5
2018-04-13T04:48:11.341Z,20.5
2018-04-13T04:49:11.277Z,20.5
2018-04-13T04:50:11.453Z,20.5
2018-04-13T04:51:11.476Z,20.5
2018-04-13T04:52:11.224Z,20.5
2018-04-13T04:53:11.309Z,20.5
2018-04-13T04:54:11.384Z,20.5
2018-04-13T04:55:11.530Z,20.5
2018-04-13T04:56:11.501Z,20.5
2018-04-13T04:57:11.275Z,20.5
2018-04-13T04:58:11.270Z,20.5
2018-04-13T04:59:11.277Z,20.5
2018-04-13T05:00:11.390Z,20.5
2018-04-13T05:01:11.328Z,20.5
2018-04-13T05:02:11.341Z,20.5
2018-04-13T05:03:11.478Z,20.5
2018-04-13T05:04:11.315Z,20.5
2018-04-13T05:05:11.354Z,20.5
2018-04-13T05:06:11.519Z,20.75
2018-04-13T05:07:11.439Z,20.5
2018-04-13T05:08:11.358Z,20.5
2018-04-13T05:09:11.351Z,20.75
2018-04-13T05:10:11.391Z,20.5
2018-04-13T05:11:11.321Z,20.75
2018-04-13T05:12:11.238Z,20.75
2018-04-13T05:13:11.451Z,20.75
2018-04-13T05:14:11.390Z,20.75
2018-04-13T05:15:11.456Z,20.75
2018-04-13T05:16:11.377Z,20.75
2018-04-13T05:17:11.402Z,20.75
2018-04-13T05:18:11.343Z,20.75
2018-04-13T05:19:11.279Z,20.5
2018-04-13T05:20:11.371Z,20.5
2018-04-13T05:21:11.440Z,20.5
2018-04-13T05:22:11.316Z,20.5
2018-04-13T05:23:11.356Z,20.5
2018-04-13T05:24:11.244Z,20.75
2018-04-13T05:25:11.275Z,20.5
2018-04-13T05:26:11.215Z,20.5
2018-04-13T05:27:11.372Z,20.75
2018-04-13T05:28:11.406Z,20.5
2018-04-13T05:29:11.394Z,20.75
2018-04-13T05:30:11.461Z,20.75
2018-04-13T05:31:11.503Z,20.75
2018-04-13T05:32:11.293Z,20.75
2018-04-13T05:33:11.312Z,20.75
2018-04-13T05:34:11.227Z,20.75
2018-04-13T05:35:11.849Z,20.75
2018-04-13T05:36:11.337Z,20.75
2018-04-13T05:37:11.360Z,20.75
2018-04-13T05:38:11.550Z,20.75
2018-04-13T05:39:11.507Z,20.75
2018-04-13T05:40:11.236Z,20.75
2018-04-13T05:41:11.301Z,21
2018-04-13T05:42:11.241Z,21
2018-04-13T05:43:11.312Z,20.75
2018-04-13T05:44:11.462Z,20.75
2018-04-13T05:45:11.327Z,20.75
2018-04-13T05:46:11.370Z,20.75
2018-04-13T05:47:11.247Z,20.75
2018-04-13T05:48:11.236Z,21
2018-04-13T05:49:11.479Z,21
2018-04-13T05:50:11.318Z,21
2018-04-13T05:51:11.337Z,21
2018-04-13T05:52:11.377Z,21
2018-04-13T05:53:11.277Z,21
2018-04-13T05:54:11.268Z,21
2018-04-13T05:55:11.394Z,21
2018-04-13T05:56:11.286Z,21
2018-04-13T05:57:11.430Z,21
2018-04-13T05:58:11.490Z,21
2018-04-13T05:59:11.490Z,21
2018-04-13T06:00:11.381Z,21
2018-04-13T06:01:11.278Z,21
2018-04-13T06:02:11.474Z,21
2018-04-13T06:03:11.318Z,21
2018-04-13T06:04:11.508Z,21
2018-04-13T06:05:11.206Z,21
2018-04-13T06:06:11.284Z,21.25
2018-04-13T06:07:11.229Z,21
2018-04-13T06:08:12.531Z,21.25
2018-04-13T06:09:11.448Z,21.25
2018-04-13T06:10:11.422Z,21
2018-04-13T06:11:11.338Z,21
2018-04-13T06:12:11.256Z,21.25
2018-04-13T06:13:11.464Z,21
2018-04-13T06:14:11.478Z,21.25
2018-04-13T06:15:11.274Z,21.25
2018-04-13T06:16:11.431Z,21
2018-04-13T06:17:11.432Z,21.25
2018-04-13T06:18:11.388Z,21.25
2018-04-13T06:19:11.205Z,21.25
2018-04-13T06:20:11.403Z,21.25
2018-04-13T06:21:11.439Z,21.25
2018-04-13T06:22:11.779Z,21.25
2018-04-13T06:23:11.310Z,21.25
2018-04-13T06:24:11.495Z,21.25
2018-04-13T06:25:11.250Z,21.25
2018-04-13T06:26:11.275Z,21.25
2018-04-13T06:27:11.287Z,21.25
2018-04-13T06:28:11.573Z,21.25
2018-04-13T06:29:11.236Z,21.25
2018-04-13T06:30:11.615Z,21.25
2018-04-13T06:31:11.430Z,21.25
2018-04-13T06:32:11.294Z,21.25
2018-04-13T06:33:11.332Z,21.25
2018-04-13T06:34:11.444Z,21.25
2018-04-13T06:35:11.468Z,21.25
2018-04-13T06:36:11.237Z,21.25
2018-04-13T06:37:11.615Z,21.25
2018-04-13T06:38:11.512Z,21.25
2018-04-13T06:39:11.509Z,21.25
2018-04-13T06:40:11.549Z,21.25
2018-04-13T06:41:11.258Z,21.25
2018-04-13T06:42:11.382Z,21.25
2018-04-13T06:43:13.437Z,21.25
2018-04-13T06:44:11.365Z,21.25
2018-04-13T06:45:11.366Z,21.25
2018-04-13T06:46:11.396Z,21.25
2018-04-13T06:47:11.470Z,21.25
2018-04-13T06:48:11.342Z,21.25
2018-04-13T06:49:11.234Z,21.25
2018-04-13T06:50:11.390Z,21.25
2018-04-13T06:51:11.377Z,21.25
2018-04-13T06:52:11.407Z,21.25
2018-04-13T06:53:11.234Z,21.25
2018-04-13T06:54:11.316Z,21.25
2018-04-13T06:55:11.420Z,21.25
2018-04-13T06:56:11.389Z,21.25
2018-04-13T06:57:11.673Z,21.25
2018-04-13T06:58:11.407Z,21.25
2018-04-13T06:59:11.234Z,21.25
2018-04-13T07:00:11.271Z,21.5
2018-04-13T07:01:11.467Z,21.25
2018-04-13T07:02:11.179Z,21.25
2018-04-13T07:03:11.292Z,21.5
2018-04-13T07:04:11.298Z,21.25
2018-04-13T07:05:11.296Z,21.5
2018-04-13T07:06:11.363Z,21.5
2018-04-13T07:07:11.318Z,21.25
2018-04-13T07:08:11.233Z,21.25
2018-04-13T07:09:11.428Z,21.5
2018-04-13T07:10:11.342Z,21.25
2018-04-13T07:11:11.213Z,21.25
2018-04-13T07:12:11.244Z,21.25
2018-04-13T07:13:11.340Z,21.25
2018-04-13T07:14:11.307Z,21.25
2018-04-13T07:15:11.259Z,21.25
2018-04-13T07:16:11.297Z,21.25
2018-04-13T07:17:11.401Z,21.25
2018-04-13T07:18:11.440Z,21.25
2018-04-13T07:19:11.347Z,21.25
2018-04-13T07:20:11.264Z,21.25
2018-04-13T07:21:11.448Z,21.25
2018-04-13T07:22:11.393Z,21.25
2018-04-13T07:23:11.316Z,21.25
2018-04-13T07:24:11.174Z,21.25
2018-04-13T07:25:11.194Z,21.25
2018-04-13T07:26:11.224Z,21.25
2018-04-13T07:27:11.401Z,21.25
2018-04-13T07:28:11.413Z,21.25
2018-04-13T07:29:11.426Z,21.25
2018-04-13T07:30:11.517Z,21.25
2018-04-13T07:31:11.216Z,21.25
2018-04-13T07:32:11.592Z,21.25
2018-04-13T07:33:11.185Z,21.25
2018-04-13T07:34:11.409Z,21.25
2018-04-13T07:35:11.355Z,21.25
2018-04-13T07:36:11.497Z,21.25
2018-04-13T07:37:11.324Z,21.25
2018-04-13T07:38:11.302Z,21.25
2018-04-13T07:39:11.751Z,21.25
2018-04-13T07:40:11.394Z,21.25
2018-04-13T07:41:11.390Z,21.25
2018-04-13T07:42:11.285Z,21.25
2018-04-13T07:43:11.274Z,21.25
2018-04-13T07:44:11.471Z,21.25
2018-04-13T07:45:11.347Z,21.25
2018-04-13T07:46:11.447Z,21.25
2018-04-13T07:47:30.525Z,21.25
2018-04-13T07:48:30.577Z,21.25
2018-04-13T07:49:30.484Z,21.25
2018-04-13T07:50:30.884Z,21.5
2018-04-13T07:51:30.577Z,21.25
2018-04-13T07:52:30.538Z,21.25
2018-04-13T07:53:32.230Z,21.25
2018-04-13T07:54:52.631Z,21.5
2018-04-13T07:55:52.488Z,21.25
2018-04-13T07:56:52.586Z,21.25
2018-04-13T07:57:52.577Z,21.25
2018-04-13T07:58:52.775Z,21.25
2018-04-13T07:59:52.451Z,21.25
2018-04-13T08:00:52.480Z,21.25
2018-04-13T08:01:53.624Z,21.25
2018-04-13T08:02:52.693Z,21.25
2018-04-13T08:03:52.527Z,21.25
2018-04-13T08:04:52.487Z,21
2018-04-13T08:05:16.763Z,21
2018-04-13T08:06:16.565Z,21
2018-04-13T08:07:16.875Z,21
2018-04-13T08:08:16.739Z,21
2018-04-13T08:09:16.663Z,21
2018-04-13T08:10:16.780Z,21
2018-04-13T08:11:16.747Z,21
2018-04-13T08:12:16.807Z,21
2018-04-13T08:13:22.240Z,21
2018-04-13T08:14:22.137Z,21
2018-04-13T08:15:22.171Z,21
2018-04-13T08:16:22.107Z,21
2018-04-13T08:17:22.230Z,21
2018-04-13T08:18:22.176Z,21
2018-04-13T08:19:22.503Z,21.25
2018-04-13T08:20:22.158Z,21.25
2018-04-13T08:21:22.053Z,21.25
2018-04-13T08:22:22.212Z,21.25
2018-04-13T08:23:22.171Z,21.25
2018-04-13T08:24:22.079Z,21.25
2018-04-13T08:25:22.191Z,21
2018-04-13T08:26:21.995Z,21
2018-04-13T08:27:22.198Z,21.25
2018-04-13T08:28:21.989Z,21.25
2018-04-13T08:29:22.171Z,21
2018-04-13T08:30:22.130Z,21.25
2018-04-13T08:31:22.055Z,21.25
2018-04-13T08:31:55.841Z,21.25
2018-04-13T08:32:55.827Z,21.25
2018-04-13T08:33:55.936Z,21.25
2018-04-13T08:34:55.927Z,21
2018-04-13T08:35:55.818Z,21
2018-04-13T08:36:55.923Z,21
2018-04-13T08:37:55.691Z,21
2018-04-13T08:38:55.865Z,21
2018-04-13T08:39:55.688Z,21
2018-04-13T08:40:55.848Z,21
2018-04-13T08:41:56.031Z,21
2018-04-13T08:42:55.918Z,21
2018-04-13T08:43:55.941Z,21
2018-04-13T08:44:55.953Z,21
2018-04-13T08:45:55.907Z,21
2018-04-13T08:46:55.926Z,21
2018-04-13T08:47:55.699Z,21
2018-04-13T08:48:56.792Z,21
2018-04-13T08:49:55.751Z,21
2018-04-13T08:50:55.828Z,21
2018-04-13T08:51:55.862Z,21
2018-04-13T08:52:55.881Z,21
2018-04-13T08:53:55.947Z,21
2018-04-13T08:54:56.306Z,21
2018-04-13T08:55:55.753Z,21
2018-04-13T08:56:55.816Z,21
2018-04-13T08:57:55.890Z,21
2018-04-13T08:58:43.343Z,21
2018-04-13T08:59:43.155Z,21
2018-04-13T09:00:43.389Z,21
2018-04-13T09:01:43.345Z,21
2018-04-13T09:02:43.340Z,21
2018-04-13T09:03:37.339Z,21
2018-04-13T09:04:34.459Z,21
2018-04-13T09:05:34.517Z,21
2018-04-13T09:06:34.780Z,21
2018-04-13T09:07:34.481Z,21
2018-04-13T09:08:24.860Z,21
2018-04-13T09:09:24.869Z,21
2018-04-13T09:10:24.705Z,21
2018-04-13T09:11:24.745Z,21
2018-04-13T09:12:24.803Z,21
2018-04-13T09:13:24.764Z,21
2018-04-13T09:14:24.962Z,21
2018-04-13T09:15:24.892Z,21
2018-04-13T09:16:24.835Z,21
2018-04-13T09:17:24.892Z,21
2018-04-13T09:18:24.802Z,21
2018-04-13T09:19:24.767Z,21
2018-04-13T09:20:24.905Z,21
2018-04-13T09:21:24.831Z,21
2018-04-13T09:22:24.811Z,21
2018-04-13T09:23:24.785Z,21
2018-04-13T09:24:24.910Z,21
2018-04-13T09:25:24.698Z,21
2018-04-13T09:26:24.775Z,21
2018-04-13T09:27:24.953Z,21
2018-04-13T09:28:24.700Z,21
2018-04-13T09:29:24.768Z,21
2018-04-13T09:30:02.256Z,21
2018-04-13T09:31:02.225Z,21
2018-04-13T09:31:33.660Z,21
2018-04-13T09:32:33.559Z,21
2018-04-13T09:33:00.321Z,21
2018-04-13T09:34:00.128Z,21
2018-04-13T09:35:00.195Z,21
2018-04-13T09:36:00.323Z,21
2018-04-13T09:37:00.365Z,21
2018-04-13T09:38:00.358Z,20.75
2018-04-13T09:39:00.425Z,20.75
2018-04-13T09:40:00.334Z,21
2018-04-13T09:41:00.390Z,21
2018-04-13T09:42:00.160Z,21
2018-04-13T09:43:00.203Z,21
2018-04-13T09:44:00.229Z,21
2018-04-13T09:45:00.373Z,21
2018-04-13T09:46:00.315Z,21
2018-04-13T09:47:00.313Z,21
2018-04-13T09:48:00.317Z,21
2018-04-13T09:49:00.329Z,20.75
2018-04-13T09:50:00.339Z,21
2018-04-13T09:51:00.403Z,21
2018-04-13T09:52:00.258Z,21
2018-04-13T09:53:00.498Z,21
2018-04-13T09:54:00.265Z,21
2018-04-13T09:55:00.124Z,21
2018-04-13T09:56:00.192Z,21
2018-04-13T09:57:00.318Z,21
2018-04-13T09:58:00.184Z,21
2018-04-13T09:59:00.354Z,20.75
2018-04-13T10:00:00.379Z,21
2018-04-13T10:01:00.254Z,20.75
2018-04-13T10:02:00.323Z,20.75
2018-04-13T10:03:00.357Z,20.75
2018-04-13T10:04:00.270Z,20.75
2018-04-13T10:05:00.163Z,20.75
2018-04-13T10:06:00.131Z,20.75
2018-04-13T10:07:00.307Z,20.75
2018-04-13T10:08:00.463Z,20.75
2018-04-13T10:09:00.248Z,20.75
2018-04-13T10:10:00.105Z,20.75
2018-04-13T10:11:00.193Z,20.75
2018-04-13T10:12:00.133Z,20.75
2018-04-13T10:13:00.326Z,20.75
2018-04-13T10:14:00.397Z,20.75
2018-04-13T10:15:00.209Z,20.75
2018-04-13T10:16:00.384Z,20.75
2018-04-13T10:17:00.305Z,20.75
2018-04-13T10:18:00.399Z,20.75
2018-04-13T10:19:00.263Z,20.75
2018-04-13T10:20:00.181Z,21
2018-04-13T10:21:00.116Z,21
2018-04-13T10:22:00.272Z,21
2018-04-13T10:23:00.205Z,21
2018-04-13T10:24:00.101Z,21
2018-04-13T10:25:00.132Z,21
2018-04-13T10:26:00.135Z,21
2018-04-13T10:27:00.388Z,21
2018-04-13T10:28:00.185Z,21
2018-04-13T10:29:00.185Z,21
2018-04-13T10:30:00.318Z,21
2018-04-13T10:31:00.209Z,21
2018-04-13T10:32:00.180Z,21
2018-04-13T10:33:00.415Z,21
2018-04-13T10:34:00.187Z,21
2018-04-13T10:35:00.258Z,21
2018-04-13T10:36:00.198Z,21
2018-04-13T10:37:00.110Z,21
2018-04-13T10:38:00.120Z,21
2018-04-13T10:39:00.232Z,21
2018-04-13T10:40:00.161Z,21
2018-04-13T10:41:00.161Z,21
2018-04-13T10:42:00.225Z,21.25
2018-04-13T10:43:00.346Z,21.25
2018-04-13T10:44:00.229Z,21.25
2018-04-13T10:45:00.293Z,21.25
2018-04-13T10:46:00.162Z,21.25
2018-04-13T10:47:00.326Z,21.25
2018-04-13T10:48:00.750Z,21.25
2018-04-13T10:49:00.235Z,21.25
2018-04-13T10:50:00.204Z,21.25
2018-04-13T10:51:00.292Z,21.25
2018-04-13T10:52:00.107Z,21.25
2018-04-13T10:53:00.131Z,21.25
2018-04-13T10:54:00.197Z,21.25
2018-04-13T10:55:00.123Z,21.25
2018-04-13T10:56:00.298Z,21.25
2018-04-13T10:57:00.209Z,21.5
2018-04-13T10:58:00.281Z,21.25
2018-04-13T10:59:00.196Z,21.5
2018-04-13T11:00:00.233Z,21.5
2018-04-13T11:01:00.080Z,21.25
2018-04-13T11:02:00.316Z,21.5
2018-04-13T11:03:00.320Z,21.5
2018-04-13T11:04:00.141Z,21.5
2018-04-13T11:05:00.206Z,21.5
2018-04-13T11:06:00.127Z,21.5
2018-04-13T11:07:00.196Z,21.5
2018-04-13T11:08:00.154Z,21.5
2018-04-13T11:09:00.639Z,21.5
2018-04-13T11:10:00.179Z,21.5
2018-04-13T11:11:00.358Z,21.5
2018-04-13T11:12:00.168Z,21.5
2018-04-13T11:13:00.349Z,21.75
2018-04-13T11:14:00.186Z,21.5
2018-04-13T11:15:00.331Z,21.75
2018-04-13T11:16:00.439Z,21.5
2018-04-13T11:17:00.246Z,21.5
2018-04-13T11:18:00.326Z,21.75
2018-04-13T11:19:00.263Z,22
2018-04-13T11:20:00.111Z,22
2018-04-13T11:21:00.258Z,21.75
2018-04-13T11:22:00.243Z,21.75
2018-04-13T11:23:00.223Z,21.75
2018-04-13T11:24:00.138Z,21.75
2018-04-13T11:25:00.175Z,21.75
2018-04-13T11:26:00.120Z,21.75
2018-04-13T11:27:00.422Z,21.75
2018-04-13T11:28:00.294Z,21.75
2018-04-13T11:29:00.113Z,21.75
2018-04-13T11:30:00.155Z,21.75
2018-04-13T11:31:00.301Z,21.75
2018-04-13T11:32:00.152Z,21.75
2018-04-13T11:33:00.169Z,21.75
2018-04-13T11:34:00.132Z,21.75
2018-04-13T11:35:00.094Z,21.75
2018-04-13T11:36:00.092Z,21.75
2018-04-13T11:37:00.417Z,21.75
2018-04-13T11:38:00.268Z,21.75
2018-04-13T11:39:00.144Z,21.75
2018-04-13T11:40:00.187Z,21.75
2018-04-13T11:41:00.073Z,21.75
2018-04-13T11:42:00.311Z,21.75
2018-04-13T11:43:00.115Z,21.75
2018-04-13T11:44:00.139Z,21.75
2018-04-13T11:45:00.506Z,21.75
2018-04-13T11:46:00.212Z,21.75
2018-04-13T11:47:00.163Z,22
2018-04-13T11:48:00.072Z,22
2018-04-13T11:49:00.272Z,21.75
2018-04-13T11:50:00.412Z,22
2018-04-13T11:51:00.230Z,22
2018-04-13T11:52:00.293Z,21.75
2018-04-13T11:53:00.282Z,22
2018-04-13T11:54:00.214Z,22
2018-04-13T11:55:00.251Z,22
2018-04-13T11:56:00.163Z,22
2018-04-13T11:57:00.232Z,22
2018-04-13T11:58:00.137Z,22
2018-04-13T11:59:00.138Z,22
2018-04-13T12:00:00.251Z,22
2018-04-13T12:01:00.358Z,22
2018-04-13T12:02:00.074Z,22
2018-04-13T12:03:00.169Z,22
2018-04-13T12:04:00.297Z,22
2018-04-13T12:05:00.175Z,22
2018-04-13T12:06:00.319Z,22
2018-04-13T12:07:00.271Z,22
2018-04-13T12:08:00.187Z,22
2018-04-13T12:09:00.238Z,22
2018-04-13T12:10:00.240Z,22
2018-04-13T12:11:00.185Z,22
2018-04-13T12:12:00.120Z,22
2018-04-13T12:13:00.223Z,22
2018-04-13T12:14:00.143Z,22
2018-04-13T12:15:00.132Z,22
2018-04-13T12:16:00.391Z,22
2018-04-13T12:17:00.150Z,22
2018-04-13T12:18:00.165Z,22
2018-04-13T12:19:00.261Z,22
2018-04-13T12:20:00.276Z,22
2018-04-13T12:21:00.088Z,22
2018-04-13T12:22:00.552Z,22
2018-04-13T12:23:00.201Z,22
2018-04-13T12:24:00.163Z,22
2018-04-13T12:25:00.150Z,22
2018-04-13T12:26:00.200Z,22
2018-04-13T12:27:00.352Z,22
2018-04-13T12:28:00.147Z,22
2018-04-13T12:29:00.173Z,22
2018-04-13T12:30:00.217Z,22
2018-04-13T12:31:00.253Z,22
2018-04-13T12:32:00.115Z,22
2018-04-13T12:33:00.280Z,22
2018-04-13T12:34:00.240Z,22
2018-04-13T12:35:01.052Z,22
2018-04-13T12:36:00.116Z,22
2018-04-13T12:37:00.370Z,22
2018-04-13T12:38:00.166Z,22
2018-04-13T12:39:00.308Z,22
2018-04-13T12:40:00.174Z,22
2018-04-13T12:41:00.561Z,22
2018-04-13T12:42:00.257Z,22
2018-04-13T12:43:00.156Z,22
2018-04-13T12:44:00.260Z,22
2018-04-13T12:45:00.300Z,22
2018-04-13T12:46:00.122Z,22
2018-04-13T12:47:00.697Z,22
2018-04-13T12:48:00.195Z,22
2018-04-13T12:49:00.367Z,22
2018-04-13T12:50:00.537Z,22
2018-04-13T12:51:00.259Z,22
2018-04-13T12:52:00.490Z,22
2018-04-13T12:53:00.545Z,22
2018-04-13T12:54:00.777Z,22
2018-04-13T12:55:01.720Z,22
2018-04-13T12:56:00.311Z,22
2018-04-13T12:57:00.889Z,22
2018-04-13T12:58:00.099Z,22
2018-04-13T12:59:00.431Z,22
2018-04-13T13:00:00.180Z,22
2018-04-13T13:01:00.259Z,22
2018-04-13T13:02:00.241Z,22
2018-04-13T13:03:00.100Z,22
2018-04-13T13:04:00.155Z,22
2018-04-13T13:05:00.257Z,22
2018-04-13T13:06:00.372Z,22
2018-04-13T13:07:00.391Z,22
2018-04-13T13:08:35.165Z,22
2018-04-13T13:09:35.044Z,21.75
2018-04-13T13:10:35.052Z,21.5
2018-04-13T13:11:35.251Z,21.5
2018-04-13T13:12:35.175Z,21.5
2018-04-13T13:13:35.160Z,21.25
2018-04-13T13:14:35.263Z,21.25
2018-04-13T13:15:35.349Z,21.25
2018-04-13T13:16:35.088Z,21.25
2018-04-13T13:17:35.100Z,21.25
2018-04-13T13:18:35.050Z,21.25
2018-04-13T13:19:35.279Z,21.25
2018-04-13T13:20:35.167Z,21.25
2018-04-13T13:21:35.056Z,21.25
2018-04-13T13:22:35.370Z,21.25
2018-04-13T13:23:35.145Z,21.25
2018-04-13T13:24:35.179Z,21.25
2018-04-13T13:25:35.207Z,21.5
2018-04-13T13:26:35.208Z,21.5
2018-04-13T13:27:35.254Z,21.25
2018-04-13T13:28:35.127Z,21.5
2018-04-13T13:29:35.084Z,21.5